| time (UTC) | temp F | wind direction | speed MPH | gust MPH | rain 1hr in | rain 24hr in | rain mn in | humidity % | barometer mb |
| 20260901065901 | 74 | 135 | 8.0 | 9.0 | 0.00 | 0.00 | 0.00 | 26 | 1022.7 |
| 20260901065401 | 74 | 135 | 5.0 | 8.0 | 0.00 | 0.00 | 0.00 | 26 | 1022.7 |
| 20260901064903 | 74 | 135 | 5.0 | 8.0 | 0.00 | 0.00 | 0.00 | 28 | 1022.6 |
| 20260901064402 | 74 | 135 | 6.0 | 7.0 | 0.00 | 0.00 | 0.00 | 26 | 1022.8 |
| 20260901063903 | 74 | 135 | 7.0 | 9.0 | 0.00 | 0.00 | 0.00 | 26 | 1022.8 |
| 20260901063402 | 73 | 151 | 7.0 | 8.0 | 0.00 | 0.00 | 0.00 | 27 | 1022.7 |
| 20260901062902 | 73 | 135 | 3.0 | 5.0 | 0.00 | 0.00 | 0.00 | 30 | 1022.6 |
| 20260901062401 | 73 | 135 | 3.0 | 6.0 | 0.00 | 0.00 | 0.00 | 30 | 1022.8 |
| 20260901061903 | 72 | 135 | 3.0 | 3.0 | 0.00 | 0.00 | 0.00 | 32 | 1022.7 |
| 20260901061402 | 72 | 135 | 2.0 | 3.0 | 0.00 | 0.00 | 0.00 | 36 | 1022.8 |
| 20260901060901 | 70 | 135 | 1.0 | 3.0 | 0.00 | 0.00 | 0.00 | 37 | 1022.6 |
| 20260901060403 | 69 | 146 | 2.0 | 3.0 | 0.00 | 0.00 | 0.00 | 41 | 1022.6 |
| 20260901055902 | 68 | 158 | 2.0 | 3.0 | 0.00 | 0.00 | 0.00 | 41 | 1022.6 |
| 20260901055401 | 66 | 135 | 1.0 | 2.0 | 0.00 | 0.00 | 0.00 | 42 | 1022.4 |
| 20260901054903 | 67 | 158 | 2.0 | 5.0 | 0.00 | 0.00 | 0.00 | 42 | 1022.5 |
| 20260901054402 | 65 | 158 | 1.0 | 2.0 | 0.00 | 0.00 | 0.00 | 44 | 1022.4 |
| 20260901053901 | 63 | 135 | 0.0 | 1.0 | 0.00 | 0.00 | 0.00 | 50 | 1022.2 |
| 20260901053403 | 63 | 135 | 3.0 | 5.0 | 0.00 | 0.00 | 0.00 | 48 | 1022.3 |
| 20260901052903 | 63 | 135 | 0.0 | 1.0 | 0.00 | 0.00 | 0.00 | 46 | 1022.2 |
| 20260901052402 | 64 | 135 | 2.0 | 3.0 | 0.00 | 0.00 | 0.00 | 43 | 1022.1 |
| 20260901051901 | 63 | 135 | 2.0 | 3.0 | 0.00 | 0.00 | 0.00 | 45 | 1022.1 |
| 20260901051134 | 64 | 135 | 0.0 | 2.0 | 0.00 | 0.00 | 0.00 | 42 | 1021.8 |
| 20260901050635 | 64 | 135 | 2.0 | 3.0 | 0.00 | 0.00 | 0.00 | 41 | 1022.0 |
| 20260901050134 | 64 | 158 | 3.0 | 5.0 | 0.00 | 0.00 | 0.00 | 41 | 1021.9 |
| 20260901045635 | 64 | 135 | 3.0 | 5.0 | 0.00 | 0.00 | 0.00 | 41 | 1021.8 |
| 20260901045134 | 64 | 147 | 0.0 | 1.0 | 0.00 | 0.00 | 0.00 | 40 | 1021.8 |
| 20260901044633 | 64 | 153 | 0.0 | 2.0 | 0.00 | 0.00 | 0.00 | 41 | 1021.7 |
| 20260901044135 | 65 | 135 | 2.0 | 5.0 | 0.00 | 0.00 | 0.00 | 40 | 1021.6 |
| 20260901043634 | 65 | 135 | 0.0 | 1.0 | 0.00 | 0.00 | 0.00 | 40 | 1021.6 |
| 20260901043133 | 65 | 116 | 3.0 | 5.0 | 0.00 | 0.00 | 0.00 | 41 | 1021.5 |
| 20260901042635 | 64 | 135 | 2.0 | 5.0 | 0.00 | 0.00 | 0.00 | 41 | 1021.5 |
| 20260901042134 | 65 | 135 | 1.0 | 2.0 | 0.00 | 0.00 | 0.00 | 40 | 1021.2 |
| 20260901041634 | 66 | 135 | 2.0 | 5.0 | 0.00 | 0.00 | 0.00 | 39 | 1021.2 |
| 20260901041133 | 67 | 120 | 0.0 | 1.0 | 0.00 | 0.00 | 0.00 | 37 | 1021.2 |
| 20260901040633 | 68 | 158 | 3.0 | 5.0 | 0.00 | 0.00 | 0.00 | 35 | 1021.2 |
| 20260901035907 | 69 | 135 | 3.0 | 3.0 | 0.00 | 0.00 | 0.00 | 33 | 1021.0 |
| 20260901035406 | 69 | 138 | 1.0 | 3.0 | 0.00 | 0.00 | 0.00 | 32 | 1021.1 |
| 20260901034908 | 70 | 135 | 3.0 | 6.0 | 0.00 | 0.00 | 0.00 | 32 | 1021.0 |
| 20260901034407 | 71 | 135 | 7.0 | 10.0 | 0.00 | 0.00 | 0.00 | 32 | 1020.8 |
| 20260901033907 | 71 | 135 | 5.0 | 8.0 | 0.00 | 0.00 | 0.00 | 31 | 1020.6 |
| 20260901033408 | 71 | 135 | 12.0 | 15.0 | 0.00 | 0.00 | 0.00 | 31 | 1020.7 |
| 20260901032907 | 72 | 135 | 9.0 | 13.0 | 0.00 | 0.00 | 0.00 | 31 | 1020.6 |
| 20260901032407 | 72 | 135 | 10.0 | 17.0 | 0.00 | 0.00 | 0.00 | 31 | 1020.5 |
| 20260901031906 | 72 | 135 | 13.0 | 17.0 | 0.00 | 0.00 | 0.00 | 31 | 1020.5 |
| 20260901031407 | 72 | 135 | 10.0 | 20.0 | 0.00 | 0.00 | 0.00 | 31 | 1020.4 |
| 20260901030906 | 72 | 135 | 10.0 | 14.0 | 0.00 | 0.00 | 0.00 | 31 | 1020.5 |
| 20260901030408 | 72 | 135 | 9.0 | 17.0 | 0.00 | 0.00 | 0.00 | 31 | 1020.5 |
| 20260901025907 | 72 | 270 | 15.0 | 21.0 | 0.00 | 0.00 | 0.00 | 31 | 1020.5 |
| 20260901025406 | 72 | 227 | 13.0 | 17.0 | 0.00 | 0.00 | 0.00 | 31 | 1020.6 |
| 20260901024907 | 72 | 135 | 12.0 | 17.0 | 0.00 | 0.00 | 0.00 | 31 | 1020.6 |
| 20260901024406 | 72 | 135 | 14.0 | 23.0 | 0.00 | 0.00 | 0.00 | 30 | 1020.7 |
| 20260901023908 | 73 | 135 | 10.0 | 15.0 | 0.00 | 0.00 | 0.00 | 26 | 1020.6 |
| 20260901023407 | 74 | 135 | 15.0 | 20.0 | 0.00 | 0.00 | 0.00 | 25 | 1020.8 |
| 20260901022907 | 74 | 135 | 10.0 | 16.0 | 0.00 | 0.00 | 0.00 | 25 | 1020.8 |
| 20260901022406 | 74 | 315 | 10.0 | 18.0 | 0.00 | 0.00 | 0.00 | 25 | 1020.7 |
| 20260901021907 | 74 | 255 | 15.0 | 21.0 | 0.00 | 0.00 | 0.00 | 25 | 1020.9 |
| 20260901021407 | 74 | 292 | 14.0 | 18.0 | 0.00 | 0.00 | 0.00 | 24 | 1020.7 |
| 20260901020906 | 74 | 270 | 17.0 | 26.0 | 0.00 | 0.00 | 0.00 | 24 | 1020.9 |
| 20260901020408 | 74 | 265 | 12.0 | 18.0 | 0.00 | 0.00 | 0.00 | 25 | 1020.9 |
| 20260901015907 | 74 | 270 | 17.0 | 22.0 | 0.00 | 0.00 | 0.00 | 25 | 1020.9 |
| 20260901015406 | 74 | 270 | 12.0 | 20.0 | 0.00 | 0.00 | 0.00 | 25 | 1020.9 |
| 20260901014907 | 74 | 270 | 12.0 | 15.0 | 0.00 | 0.00 | 0.00 | 25 | 1021.0 |
| 20260901014407 | 74 | 195 | 10.0 | 15.0 | 0.00 | 0.00 | 0.00 | 25 | 1020.9 |
| 20260901013907 | 74 | 135 | 13.0 | 20.0 | 0.00 | 0.00 | 0.00 | 24 | 1021.1 |
| 20260901013407 | 74 | 135 | 13.0 | 20.0 | 0.00 | 0.00 | 0.00 | 25 | 1021.0 |
| 20260901012906 | 74 | 135 | 9.0 | 10.0 | 0.00 | 0.00 | 0.00 | 25 | 1021.0 |
| 20260901012408 | 73 | 135 | 12.0 | 18.0 | 0.00 | 0.00 | 0.00 | 25 | 1021.1 |
| 20260901011907 | 73 | 135 | 8.0 | 13.0 | 0.00 | 0.00 | 0.00 | 26 | 1021.0 |
| 20260901011407 | 73 | 137 | 6.0 | 8.0 | 0.00 | 0.00 | 0.00 | 26 | 1021.1 |
| 20260901010906 | 73 | 254 | 7.0 | 12.0 | 0.00 | 0.00 | 0.00 | 26 | 1021.1 |
| 20260901010409 | 73 | 270 | 15.0 | 21.0 | 0.00 | 0.00 | 0.00 | 26 | 1021.2 |
| 20260901005909 | 73 | 225 | 15.0 | 17.0 | 0.00 | 0.00 | 0.00 | 27 | 1021.2 |
| 20260901005408 | 73 | 270 | 8.0 | 10.0 | 0.00 | 0.00 | 0.00 | 26 | 1021.2 |
| 20260901004909 | 73 | 225 | 9.0 | 13.0 | 0.00 | 0.00 | 0.00 | 25 | 1021.3 |
| 20260901004408 | 74 | 305 | 9.0 | 13.0 | 0.00 | 0.00 | 0.00 | 25 | 1021.3 |
| 20260901003908 | 74 | 315 | 13.0 | 17.0 | 0.00 | 0.00 | 0.00 | 25 | 1021.4 |
| 20260901003409 | 73 | 260 | 12.0 | 15.0 | 0.00 | 0.00 | 0.00 | 27 | 1021.3 |
| 20260901002908 | 74 | 285 | 10.0 | 18.0 | 0.00 | 0.00 | 0.00 | 26 | 1021.4 |
| 20260901002409 | 74 | 296 | 9.0 | 15.0 | 0.00 | 0.00 | 0.00 | 27 | 1021.3 |
| 20260901001909 | 74 | 239 | 8.0 | 13.0 | 0.00 | 0.00 | 0.00 | 28 | 1021.2 |
| 20260901001408 | 73 | 305 | 10.0 | 15.0 | 0.00 | 0.00 | 0.00 | 28 | 1021.3 |
| 20260901000909 | 73 | 270 | 10.0 | 14.0 | 0.00 | 0.00 | 0.00 | 29 | 1021.4 |
| 20260901000408 | 73 | 267 | 9.0 | 13.0 | 0.00 | 0.00 | 0.00 | 28 | 1021.3 |
| 20260831235910 | 73 | 315 | 18.0 | 23.0 | 0.00 | 0.00 | 0.00 | 29 | 1021.3 |
| 20260831235409 | 73 | 270 | 10.0 | 13.0 | 0.00 | 0.00 | 0.00 | 30 | 1021.4 |
| 20260831234908 | 73 | 135 | 8.0 | 13.0 | 0.00 | 0.00 | 0.00 | 29 | 1021.4 |
| 20260831234409 | 74 | 302 | 9.0 | 13.0 | 0.00 | 0.00 | 0.00 | 28 | 1021.4 |
| 20260831233909 | 73 | 270 | 10.0 | 15.0 | 0.00 | 0.00 | 0.00 | 30 | 1021.4 |
| 20260831233409 | 73 | 307 | 6.0 | 10.0 | 0.00 | 0.00 | 0.00 | 29 | 1021.4 |
| 20260831232909 | 73 | 249 | 6.0 | 9.0 | 0.00 | 0.00 | 0.00 | 30 | 1021.4 |
| 20260831232408 | 74 | 308 | 2.0 | 10.0 | 0.00 | 0.00 | 0.00 | 29 | 1021.5 |
| 20260831231908 | 74 | 270 | 7.0 | 13.0 | 0.00 | 0.00 | 0.00 | 29 | 1021.3 |
| 20260831231410 | 74 | 270 | 6.0 | 9.0 | 0.00 | 0.00 | 0.00 | 29 | 1021.4 |
| 20260831230909 | 74 | 292 | 8.0 | 12.0 | 0.00 | 0.00 | 0.00 | 30 | 1021.4 |
| 20260831230409 | 74 | 175 | 9.0 | 13.0 | 0.00 | 0.00 | 0.00 | 30 | 1021.3 |
| 20260831225908 | 74 | 270 | 6.0 | 6.0 | 0.00 | 0.00 | 0.00 | 29 | 1021.4 |
| 20260831225409 | 74 | 221 | 6.0 | 12.0 | 0.00 | 0.00 | 0.00 | 29 | 1021.3 |
| 20260831224909 | 74 | 240 | 7.0 | 12.0 | 0.00 | 0.00 | 0.00 | 30 | 1021.2 |
| 20260831224408 | 74 | 276 | 10.0 | 15.0 | 0.00 | 0.00 | 0.00 | 30 | 1021.2 |
| 20260831223909 | 75 | 254 | 7.0 | 10.0 | 0.00 | 0.00 | 0.00 | 30 | 1021.2 |
| 20260831223409 | 74 | 284 | 7.0 | 13.0 | 0.00 | 0.00 | 0.00 | 30 | 1021.2 |
| 20260831222908 | 75 | 252 | 9.0 | 13.0 | 0.00 | 0.00 | 0.00 | 29 | 1021.2 |
| 20260831222410 | 75 | 270 | 8.0 | 13.0 | 0.00 | 0.00 | 0.00 | 30 | 1021.2 |
| 20260831221909 | 75 | 270 | 10.0 | 13.0 | 0.00 | 0.00 | 0.00 | 28 | 1021.2 |
| 20260831221408 | 75 | 305 | 10.0 | 15.0 | 0.00 | 0.00 | 0.00 | 30 | 1021.2 |
| 20260831220908 | 74 | 294 | 8.0 | 10.0 | 0.00 | 0.00 | 0.00 | 30 | 1021.1 |
| 20260831220409 | 75 | 281 | 10.0 | 14.0 | 0.00 | 0.00 | 0.00 | 30 | 1021.1 |
| 20260831215908 | 75 | 270 | 12.0 | 13.0 | 0.00 | 0.00 | 0.00 | 30 | 1021.3 |
| 20260831215410 | 75 | 257 | 8.0 | 13.0 | 0.00 | 0.00 | 0.00 | 30 | 1021.1 |
| 20260831214909 | 76 | 240 | 7.0 | 10.0 | 0.00 | 0.00 | 0.00 | 29 | 1021.1 |
| 20260831214408 | 76 | 145 | 12.0 | 15.0 | 0.00 | 0.00 | 0.00 | 29 | 1021.1 |
| 20260831213910 | 76 | 270 | 9.0 | 12.0 | 0.00 | 0.00 | 0.00 | 29 | 1021.0 |
| 20260831213409 | 76 | 270 | 12.0 | 15.0 | 0.00 | 0.00 | 0.00 | 30 | 1021.1 |
| 20260831212908 | 76 | 261 | 8.0 | 10.0 | 0.00 | 0.00 | 0.00 | 29 | 1021.0 |
| 20260831212408 | 77 | 270 | 6.0 | 8.0 | 0.00 | 0.00 | 0.00 | 27 | 1021.0 |
| 20260831211909 | 77 | 217 | 7.0 | 10.0 | 0.00 | 0.00 | 0.00 | 26 | 1020.8 |
| 20260831211409 | 77 | 299 | 8.0 | 15.0 | 0.00 | 0.00 | 0.00 | 28 | 1020.8 |
| 20260831210908 | 78 | 270 | 8.0 | 10.0 | 0.00 | 0.00 | 0.00 | 26 | 1020.9 |
| 20260831210410 | 78 | 270 | 5.0 | 8.0 | 0.00 | 0.00 | 0.00 | 26 | 1020.7 |
| 20260831205909 | 78 | 225 | 3.0 | 12.0 | 0.00 | 0.00 | 0.00 | 25 | 1020.8 |
| 20260831205408 | 78 | 317 | 7.0 | 13.0 | 0.00 | 0.00 | 0.00 | 26 | 1020.5 |
| 20260831204908 | 78 | 268 | 10.0 | 15.0 | 0.00 | 0.00 | 0.00 | 25 | 1020.6 |
| 20260831204409 | 78 | 270 | 8.0 | 9.0 | 0.00 | 0.00 | 0.00 | 25 | 1020.6 |
| 20260831203909 | 78 | 245 | 3.0 | 6.0 | 0.00 | 0.00 | 0.00 | 25 | 1020.4 |
| 20260831203408 | 78 | 225 | 1.0 | 8.0 | 0.00 | 0.00 | 0.00 | 26 | 1020.4 |
| 20260831202909 | 79 | 299 | 3.0 | 6.0 | 0.00 | 0.00 | 0.00 | 25 | 1020.4 |
| 20260831202409 | 79 | 263 | 2.0 | 8.0 | 0.00 | 0.00 | 0.00 | 25 | 1020.2 |
| 20260831201908 | 79 | 270 | 6.0 | 10.0 | 0.00 | 0.00 | 0.00 | 26 | 1020.1 |
| 20260831201410 | 79 | 280 | 7.0 | 9.0 | 0.00 | 0.00 | 0.00 | 25 | 1020.2 |
| 20260831200909 | 79 | 259 | 3.0 | 7.0 | 0.00 | 0.00 | 0.00 | 25 | 1020.1 |
| 20260831200409 | 80 | 235 | 6.0 | 9.0 | 0.00 | 0.00 | 0.00 | 24 | 1020.2 |
| 20260831195908 | 79 | 315 | 12.0 | 14.0 | 0.00 | 0.00 | 0.00 | 25 | 1020.1 |
| 20260831195409 | 79 | 261 | 6.0 | 8.0 | 0.00 | 0.00 | 0.00 | 25 | 1020.0 |
| 20260831194908 | 79 | 214 | 5.0 | 7.0 | 0.00 | 0.00 | 0.00 | 26 | 1019.9 |
| 20260831194409 | 80 | 314 | 6.0 | 8.0 | 0.00 | 0.00 | 0.00 | 23 | 1019.9 |
| 20260831193909 | 80 | 270 | 3.0 | 6.0 | 0.00 | 0.00 | 0.00 | 23 | 1019.7 |
| 20260831193408 | 80 | 135 | 6.0 | 7.0 | 0.00 | 0.00 | 0.00 | 24 | 1019.7 |
| 20260831192908 | 80 | 135 | 3.0 | 3.0 | 0.00 | 0.00 | 0.00 | 27 | 1019.6 |
| 20260831192409 | 81 | 135 | 2.0 | 3.0 | 0.00 | 0.00 | 0.00 | 25 | 1019.6 |
| 20260831191909 | 81 | 262 | 6.0 | 8.0 | 0.00 | 0.00 | 0.00 | 25 | 1019.5 |
| 20260831191408 | 81 | 188 | 9.0 | 14.0 | 0.00 | 0.00 | 0.00 | 24 | 1019.3 |
| 20260831190910 | 82 | 337 | 7.0 | 12.0 | 0.00 | 0.00 | 0.00 | 21 | 1019.4 |
| 20260831190409 | 82 | 270 | 3.0 | 6.0 | 0.00 | 0.00 | 0.00 | 21 | 1019.1 |
| 20260831185908 | 83 | 248 | 6.0 | 9.0 | 0.00 | 0.00 | 0.00 | 21 | 1019.1 |
| 20260831185409 | 82 | 266 | 12.0 | 17.0 | 0.00 | 0.00 | 0.00 | 21 | 1018.9 |
| 20260831184909 | 83 | 286 | 9.0 | 15.0 | 0.00 | 0.00 | 0.00 | 21 | 1018.8 |
| 20260831184408 | 83 | 283 | 6.0 | 9.0 | 0.00 | 0.00 | 0.00 | 21 | 1018.7 |
| 20260831183909 | 83 | 209 | 7.0 | 10.0 | 0.00 | 0.00 | 0.00 | 21 | 1018.6 |
| 20260831183408 | 84 | 282 | 9.0 | 17.0 | 0.00 | 0.00 | 0.00 | 20 | 1018.4 |
| 20260831182909 | 84 | 315 | 13.0 | 21.0 | 0.00 | 0.00 | 0.00 | 20 | 1018.5 |
| 20260831182408 | 84 | 315 | 13.0 | 17.0 | 0.00 | 0.00 | 0.00 | 20 | 1018.4 |
| 20260831181908 | 84 | 292 | 6.0 | 14.0 | 0.00 | 0.00 | 0.00 | 20 | 1018.4 |
| 20260831181409 | 85 | 341 | 13.0 | 17.0 | 0.00 | 0.00 | 0.00 | 20 | 1018.3 |
| 20260831180908 | 85 | 347 | 14.0 | 17.0 | 0.00 | 0.00 | 0.00 | 20 | 1018.2 |
| 20260831180409 | 85 | 315 | 13.0 | 20.0 | 0.00 | 0.00 | 0.00 | 20 | 1018.2 |
| 20260831175908 | 85 | 270 | 14.0 | 18.0 | 0.00 | 0.00 | 0.00 | 13 | 1018.2 |
| 20260831175408 | 85 | 267 | 8.0 | 15.0 | 0.00 | 0.00 | 0.00 | 13 | 1018.2 |
| 20260831174909 | 85 | 17 | 13.0 | 24.0 | 0.00 | 0.00 | 0.00 | 13 | 1018.1 |
| 20260831174408 | 85 | 315 | 9.0 | 17.0 | 0.00 | 0.00 | 0.00 | 13 | 1017.9 |
| 20260831173909 | 85 | 318 | 16.0 | 20.0 | 0.00 | 0.00 | 0.00 | 20 | 1018.0 |
| 20260831173409 | 86 | 256 | 9.0 | 14.0 | 0.00 | 0.00 | 0.00 | 13 | 1017.9 |
| 20260831172909 | 86 | 315 | 14.0 | 17.0 | 0.00 | 0.00 | 0.00 | 13 | 1017.8 |
| 20260831172409 | 86 | 322 | 9.0 | 16.0 | 0.00 | 0.00 | 0.00 | 13 | 1017.7 |
| 20260831171908 | 86 | 315 | 9.0 | 15.0 | 0.00 | 0.00 | 0.00 | 13 | 1017.9 |
| 20260831171408 | 87 | 315 | 10.0 | 16.0 | 0.00 | 0.00 | 0.00 | 13 | 1017.9 |
| 20260831170909 | 87 | 284 | 15.0 | 21.0 | 0.00 | 0.00 | 0.00 | 13 | 1017.8 |
| 20260831170408 | 88 | 315 | 16.0 | 21.0 | 0.00 | 0.00 | 0.00 | 13 | 1017.9 |
| 20260831165909 | 88 | 315 | 20.0 | 26.0 | 0.00 | 0.00 | 0.00 | 13 | 1017.9 |
| 20260831165409 | 88 | 343 | 12.0 | 18.0 | 0.00 | 0.00 | 0.00 | 20 | 1017.9 |
| 20260831164908 | 88 | 315 | 14.0 | 20.0 | 0.00 | 0.00 | 0.00 | 13 | 1017.8 |
| 20260831164408 | 89 | 232 | 10.0 | 23.0 | 0.00 | 0.00 | 0.00 | 13 | 1017.8 |
| 20260831163909 | 89 | 315 | 13.0 | 17.0 | 0.00 | 0.00 | 0.00 | 13 | 1017.9 |
| 20260831163408 | 89 | 311 | 13.0 | 17.0 | 0.00 | 0.00 | 0.00 | 13 | 1017.7 |
| 20260831162908 | 90 | 307 | 16.0 | 21.0 | 0.00 | 0.00 | 0.00 | 13 | 1017.8 |
| 20260831162407 | 90 | 339 | 10.0 | 17.0 | 0.00 | 0.00 | 0.00 | 13 | 1017.8 |
| 20260831161909 | 90 | 318 | 13.0 | 17.0 | 0.00 | 0.00 | 0.00 | 13 | 1017.8 |
| 20260831161408 | 90 | 315 | 13.0 | 18.0 | 0.00 | 0.00 | 0.00 | 13 | 1017.8 |
| 20260831160909 | 90 | 315 | 16.0 | 24.0 | 0.00 | 0.00 | 0.00 | 13 | 1017.9 |
| 20260831160408 | 90 | 312 | 14.0 | 20.0 | 0.00 | 0.00 | 0.00 | 13 | 1017.7 |
| 20260831155413 | 90 | 322 | 13.0 | 16.0 | 0.00 | 0.00 | 0.00 | 20 | 1017.8 |
| 20260831154913 | 90 | 342 | 14.0 | 20.0 | 0.00 | 0.00 | 0.00 | 15 | 1017.8 |
| 20260831154412 | 91 | 0 | 14.0 | 23.0 | 0.00 | 0.00 | 0.00 | 12 | 1017.7 |
| 20260831153911 | 91 | 281 | 12.0 | 18.0 | 0.00 | 0.00 | 0.00 | 13 | 1017.7 |
| 20260831153413 | 91 | 315 | 10.0 | 16.0 | 0.00 | 0.00 | 0.00 | 13 | 1017.7 |
| 20260831152911 | 91 | 315 | 15.0 | 20.0 | 0.00 | 0.00 | 0.00 | 12 | 1017.7 |
| 20260831152413 | 91 | 293 | 9.0 | 15.0 | 0.00 | 0.00 | 0.00 | 13 | 1017.5 |
| 20260831151912 | 91 | 315 | 15.0 | 21.0 | 0.00 | 0.00 | 0.00 | 13 | 1017.7 |
| 20260831151412 | 91 | 315 | 10.0 | 15.0 | 0.00 | 0.00 | 0.00 | 12 | 1017.7 |
| 20260831150912 | 90 | 296 | 16.0 | 20.0 | 0.00 | 0.00 | 0.00 | 19 | 1017.6 |
| 20260831150413 | 91 | 315 | 14.0 | 17.0 | 0.00 | 0.00 | 0.00 | 12 | 1017.7 |
| 20260831145912 | 90 | 307 | 18.0 | 29.0 | 0.00 | 0.00 | 0.00 | 13 | 1017.6 |
| 20260831145412 | 91 | 270 | 16.0 | 23.0 | 0.00 | 0.00 | 0.00 | 13 | 1017.7 |
| 20260831144913 | 91 | 350 | 14.0 | 17.0 | 0.00 | 0.00 | 0.00 | 13 | 1017.7 |
| 20260831144413 | 91 | 350 | 14.0 | 20.0 | 0.00 | 0.00 | 0.00 | 13 | 1017.7 |
| 20260831143912 | 91 | 284 | 16.0 | 22.0 | 0.00 | 0.00 | 0.00 | 13 | 1017.5 |
| 20260831143412 | 91 | 2 | 13.0 | 21.0 | 0.00 | 0.00 | 0.00 | 13 | 1017.5 |
| 20260831142913 | 91 | 29 | 10.0 | 13.0 | 0.00 | 0.00 | 0.00 | 13 | 1017.5 |
| 20260831142412 | 91 | 315 | 16.0 | 21.0 | 0.00 | 0.00 | 0.00 | 13 | 1017.6 |
| 20260831141911 | 91 | 344 | 12.0 | 17.0 | 0.00 | 0.00 | 0.00 | 13 | 1017.5 |
| 20260831141413 | 91 | 271 | 10.0 | 17.0 | 0.00 | 0.00 | 0.00 | 13 | 1017.6 |
| 20260831140912 | 91 | 315 | 14.0 | 20.0 | 0.00 | 0.00 | 0.00 | 13 | 1017.5 |
| 20260831140412 | 92 | 278 | 17.0 | 25.0 | 0.00 | 0.00 | 0.00 | 13 | 1017.4 |
| 20260831135913 | 91 | 307 | 13.0 | 22.0 | 0.00 | 0.00 | 0.00 | 13 | 1017.5 |
| 20260831135412 | 91 | 315 | 10.0 | 16.0 | 0.00 | 0.00 | 0.00 | 13 | 1017.5 |
| 20260831134912 | 91 | 332 | 12.0 | 16.0 | 0.00 | 0.00 | 0.00 | 13 | 1017.6 |
| 20260831134413 | 91 | 286 | 18.0 | 23.0 | 0.00 | 0.00 | 0.00 | 13 | 1017.5 |
| 20260831133913 | 91 | 315 | 14.0 | 17.0 | 0.00 | 0.00 | 0.00 | 13 | 1017.6 |
| 20260831133412 | 91 | 247 | 9.0 | 18.0 | 0.00 | 0.00 | 0.00 | 13 | 1017.6 |
| 20260831132913 | 91 | 315 | 14.0 | 18.0 | 0.00 | 0.00 | 0.00 | 13 | 1017.6 |
| 20260831132413 | 91 | 29 | 8.0 | 17.0 | 0.00 | 0.00 | 0.00 | 13 | 1017.6 |
| 20260831131912 | 91 | 284 | 10.0 | 18.0 | 0.00 | 0.00 | 0.00 | 13 | 1017.9 |
| 20260831131411 | 90 | 335 | 17.0 | 21.0 | 0.00 | 0.00 | 0.00 | 13 | 1017.8 |
| 20260831130913 | 90 | 39 | 18.0 | 23.0 | 0.00 | 0.00 | 0.00 | 13 | 1017.9 |
| 20260831130412 | 90 | 331 | 14.0 | 20.0 | 0.00 | 0.00 | 0.00 | 13 | 1017.8 |
| 20260831125911 | 90 | 315 | 20.0 | 23.0 | 0.00 | 0.00 | 0.00 | 13 | 1017.9 |
| 20260831125412 | 90 | 312 | 20.0 | 29.0 | 0.00 | 0.00 | 0.00 | 13 | 1017.9 |
| 20260831124913 | 90 | 0 | 14.0 | 20.0 | 0.00 | 0.00 | 0.00 | 13 | 1017.9 |
| 20260831124412 | 91 | 303 | 17.0 | 21.0 | 0.00 | 0.00 | 0.00 | 13 | 1017.9 |
| 20260831123912 | 90 | 210 | 14.0 | 22.0 | 0.00 | 0.00 | 0.00 | 13 | 1018.0 |
| 20260831123413 | 90 | 315 | 15.0 | 18.0 | 0.00 | 0.00 | 0.00 | 13 | 1018.0 |
| 20260831122913 | 90 | 313 | 18.0 | 23.0 | 0.00 | 0.00 | 0.00 | 13 | 1018.0 |
| 20260831122412 | 90 | 285 | 16.0 | 23.0 | 0.00 | 0.00 | 0.00 | 13 | 1018.1 |
| 20260831121911 | 90 | 309 | 15.0 | 21.0 | 0.00 | 0.00 | 0.00 | 20 | 1018.1 |
| 20260831121413 | 89 | 315 | 12.0 | 17.0 | 0.00 | 0.00 | 0.00 | 20 | 1018.1 |
| 20260831120913 | 89 | 334 | 15.0 | 23.0 | 0.00 | 0.00 | 0.00 | 16 | 1018.1 |
| 20260831120412 | 89 | 270 | 20.0 | 25.0 | 0.00 | 0.00 | 0.00 | 20 | 1018.2 |
| 20260831115913 | 89 | 315 | 15.0 | 17.0 | 0.00 | 0.00 | 0.00 | 13 | 1018.2 |
| 20260831115412 | 89 | 0 | 14.0 | 20.0 | 0.00 | 0.00 | 0.00 | 20 | 1018.1 |
| 20260831114913 | 89 | 351 | 12.0 | 21.0 | 0.00 | 0.00 | 0.00 | 20 | 1018.2 |
| 20260831114412 | 90 | 315 | 15.0 | 22.0 | 0.00 | 0.00 | 0.00 | 20 | 1018.4 |
| 20260831113912 | 89 | 324 | 16.0 | 26.0 | 0.00 | 0.00 | 0.00 | 13 | 1018.2 |
| 20260831113413 | 89 | 303 | 13.0 | 23.0 | 0.00 | 0.00 | 0.00 | 14 | 1018.2 |
| 20260831112913 | 89 | 0 | 12.0 | 18.0 | 0.00 | 0.00 | 0.00 | 20 | 1018.3 |
| 20260831112412 | 90 | 336 | 16.0 | 23.0 | 0.00 | 0.00 | 0.00 | 13 | 1018.3 |
| 20260831111913 | 89 | 297 | 20.0 | 24.0 | 0.00 | 0.00 | 0.00 | 13 | 1018.4 |
| 20260831111412 | 90 | 315 | 14.0 | 17.0 | 0.00 | 0.00 | 0.00 | 16 | 1018.5 |
| 20260831110911 | 90 | 270 | 14.0 | 18.0 | 0.00 | 0.00 | 0.00 | 20 | 1018.5 |
| 20260831110412 | 90 | 304 | 8.0 | 16.0 | 0.00 | 0.00 | 0.00 | 18 | 1018.4 |
| 20260831105911 | 89 | 270 | 22.0 | 25.0 | 0.00 | 0.00 | 0.00 | 13 | 1018.6 |
| 20260831105412 | 90 | 322 | 18.0 | 21.0 | 0.00 | 0.00 | 0.00 | 13 | 1018.4 |
| 20260831104913 | 89 | 315 | 15.0 | 20.0 | 0.00 | 0.00 | 0.00 | 13 | 1018.5 |
| 20260831104412 | 89 | 299 | 10.0 | 15.0 | 0.00 | 0.00 | 0.00 | 13 | 1018.5 |
| 20260831103912 | 89 | 325 | 17.0 | 22.0 | 0.00 | 0.00 | 0.00 | 13 | 1018.5 |
| 20260831103411 | 89 | 315 | 17.0 | 21.0 | 0.00 | 0.00 | 0.00 | 13 | 1018.5 |
| 20260831102913 | 89 | 315 | 18.0 | 23.0 | 0.00 | 0.00 | 0.00 | 13 | 1018.6 |
| 20260831102412 | 89 | 0 | 18.0 | 23.0 | 0.00 | 0.00 | 0.00 | 15 | 1018.7 |
| 20260831101911 | 88 | 264 | 9.0 | 15.0 | 0.00 | 0.00 | 0.00 | 20 | 1018.7 |
| 20260831101412 | 89 | 315 | 21.0 | 30.0 | 0.00 | 0.00 | 0.00 | 20 | 1018.9 |
| 20260831100913 | 89 | 135 | 13.0 | 17.0 | 0.00 | 0.00 | 0.00 | 20 | 1018.8 |
| 20260831100413 | 89 | 135 | 9.0 | 13.0 | 0.00 | 0.00 | 0.00 | 20 | 1019.0 |
| 20260831095913 | 88 | 135 | 5.0 | 7.0 | 0.00 | 0.00 | 0.00 | 21 | 1018.9 |
| 20260831095412 | 88 | 135 | 15.0 | 21.0 | 0.00 | 0.00 | 0.00 | 21 | 1019.2 |
| 20260831094913 | 88 | 135 | 12.0 | 24.0 | 0.00 | 0.00 | 0.00 | 21 | 1019.2 |
| 20260831094413 | 88 | 135 | 5.0 | 14.0 | 0.00 | 0.00 | 0.00 | 25 | 1019.4 |
| 20260831093912 | 87 | 135 | 10.0 | 14.0 | 0.00 | 0.00 | 0.00 | 25 | 1019.5 |
| 20260831093413 | 87 | 135 | 6.0 | 8.0 | 0.00 | 0.00 | 0.00 | 27 | 1019.4 |
| 20260831092912 | 87 | 135 | 8.0 | 15.0 | 0.00 | 0.00 | 0.00 | 29 | 1019.6 |
| 20260831092411 | 86 | 135 | 10.0 | 13.0 | 0.00 | 0.00 | 0.00 | 27 | 1019.6 |
| 20260831091913 | 86 | 135 | 8.0 | 13.0 | 0.00 | 0.00 | 0.00 | 30 | 1019.6 |
| 20260831091412 | 85 | 135 | 13.0 | 17.0 | 0.00 | 0.00 | 0.00 | 30 | 1019.6 |
| 20260831090912 | 85 | 135 | 10.0 | 15.0 | 0.00 | 0.00 | 0.00 | 31 | 1019.6 |
| 20260831090413 | 85 | 135 | 12.0 | 17.0 | 0.00 | 0.00 | 0.00 | 33 | 1019.6 |
| 20260831085912 | 84 | 135 | 1.0 | 2.0 | 0.00 | 0.00 | 0.00 | 40 | 1019.8 |
| 20260831085412 | 83 | 135 | 3.0 | 3.0 | 0.00 | 0.00 | 0.00 | 39 | 1019.9 |
| 20260831084913 | 82 | 135 | 5.0 | 6.0 | 0.00 | 0.00 | 0.00 | 40 | 1019.9 |
| 20260831084411 | 83 | 135 | 6.0 | 7.0 | 0.00 | 0.00 | 0.00 | 35 | 1020.0 |
| 20260831083913 | 85 | 135 | 2.0 | 6.0 | 0.00 | 0.00 | 0.00 | 34 | 1020.0 |
| 20260831083412 | 86 | 135 | 1.0 | 2.0 | 0.00 | 0.00 | 0.00 | 36 | 1020.0 |
| 20260831082911 | 84 | 135 | 0.0 | 1.0 | 0.00 | 0.00 | 0.00 | 37 | 1019.9 |
| 20260831082413 | 82 | 135 | 0.0 | 2.0 | 0.00 | 0.00 | 0.00 | 42 | 1020.1 |
| 20260831081912 | 80 | 135 | 0.0 | 1.0 | 0.00 | 0.00 | 0.00 | 46 | 1020.0 |
| 20260831081411 | 78 | 135 | 0.0 | 1.0 | 0.00 | 0.00 | 0.00 | 48 | 1020.1 |
| 20260831080912 | 77 | 135 | 1.0 | 2.0 | 0.00 | 0.00 | 0.00 | 51 | 1020.1 |
| 20260831080413 | 76 | 68 | 2.0 | 3.0 | 0.00 | 0.00 | 0.00 | 52 | 1020.2 |
| 20260831075912 | 77 | 135 | 0.0 | 0.0 | 0.00 | 0.00 | 0.00 | 51 | 1020.2 |
| 20260831075412 | 77 | 135 | 0.0 | 0.0 | 0.00 | 0.00 | 0.00 | 50 | 1020.2 |
| 20260831074911 | 78 | 135 | 1.0 | 1.0 | 0.00 | 0.00 | 0.00 | 46 | 1020.2 |
| 20260831074413 | 80 | 135 | 2.0 | 3.0 | 0.00 | 0.00 | 0.00 | 43 | 1020.1 |
| 20260831073912 | 81 | 135 | 1.0 | 1.0 | 0.00 | 0.00 | 0.00 | 44 | 1020.1 |
| 20260831073411 | 79 | 135 | 0.0 | 1.0 | 0.00 | 0.00 | 0.00 | 48 | 1020.0 |
| 20260831072912 | 77 | 135 | 1.0 | 1.0 | 0.00 | 0.00 | 0.00 | 48 | 1020.0 |
| 20260831072412 | 76 | 158 | 2.0 | 5.0 | 0.00 | 0.00 | 0.00 | 49 | 1020.0 |
| 20260831071911 | 77 | 140 | 5.0 | 8.0 | 0.00 | 0.00 | 0.00 | 47 | 1020.1 |
| 20260831071412 | 77 | 158 | 2.0 | 3.0 | 0.00 | 0.00 | 0.00 | 49 | 1020.1 |
| 20260831070912 | 77 | 135 | 3.0 | 5.0 | 0.00 | 0.00 | 0.00 | 50 | 1020.1 |
| 20260831070412 | 78 | 135 | 1.0 | 2.0 | 0.00 | 0.00 | 0.00 | 51 | 1020.1 |